createdAt,value
2022-12-19T00:01:58.315Z,11.77
2022-12-19T00:04:25.961Z,13.40
2022-12-19T00:06:54.070Z,10.93
2022-12-19T00:09:21.567Z,13.18
2022-12-19T00:11:49.390Z,12.07
2022-12-19T00:14:18.301Z,13.27
2022-12-19T00:16:45.929Z,11.98
2022-12-19T00:19:14.009Z,10.10
2022-12-19T00:21:41.532Z,12.02
2022-12-19T00:24:18.081Z,11.40
2022-12-19T00:26:49.529Z,11.77
2022-12-19T00:29:18.796Z,11.40
2022-12-19T00:31:46.703Z,11.05
2022-12-19T00:34:15.631Z,13.05
2022-12-19T00:36:43.210Z,12.13
2022-12-19T00:39:11.590Z,11.07
2022-12-19T00:41:41.881Z,12.80
2022-12-19T00:44:12.191Z,11.80
2022-12-19T00:46:44.474Z,11.27
2022-12-19T00:49:19.413Z,13.57
2022-12-19T00:51:47.631Z,11.55
2022-12-19T00:54:15.556Z,10.90
2022-12-19T00:56:43.309Z,13.02
2022-12-19T00:59:11.015Z,11.98
2022-12-19T01:01:42.194Z,13.00
2022-12-19T01:04:32.455Z,12.07
2022-12-19T01:07:03.293Z,11.85
2022-12-19T01:09:34.843Z,12.80
2022-12-19T01:12:24.178Z,12.88
2022-12-19T01:14:54.566Z,13.73
2022-12-19T01:17:25.330Z,12.32
2022-12-19T01:19:55.367Z,12.25
2022-12-19T01:22:22.946Z,12.40
2022-12-19T01:24:50.496Z,11.13
2022-12-19T01:27:18.015Z,10.88
2022-12-19T01:29:52.136Z,12.02
2022-12-19T01:32:21.050Z,12.18
2022-12-19T01:34:48.591Z,12.68
2022-12-19T01:37:17.480Z,11.80
2022-12-19T01:39:46.225Z,11.50
2022-12-19T01:42:16.277Z,11.95
2022-12-19T01:45:27.662Z,11.68
2022-12-19T01:48:06.155Z,10.60
2022-12-19T01:50:38.976Z,10.65
2022-12-19T01:53:12.556Z,12.13
2022-12-19T01:55:42.426Z,10.90
2022-12-19T01:58:12.368Z,11.57
2022-12-19T02:00:42.268Z,11.90
2022-12-19T02:03:16.553Z,10.43
2022-12-19T02:05:45.581Z,11.88
2022-12-19T02:08:15.630Z,12.93
2022-12-19T02:10:43.205Z,11.00
2022-12-19T02:13:11.395Z,11.95
2022-12-19T02:15:48.653Z,10.90
2022-12-19T02:18:27.429Z,11.57
2022-12-19T02:21:30.777Z,11.43
2022-12-19T02:24:42.381Z,9.93
2022-12-19T02:27:40.316Z,11.95
2022-12-19T02:30:11.687Z,11.27
2022-12-19T02:32:50.002Z,11.68
2022-12-19T02:35:28.628Z,11.32
2022-12-19T02:38:06.766Z,10.70
2022-12-19T02:40:43.270Z,11.18
2022-12-19T02:43:16.733Z,10.55
2022-12-19T02:45:46.225Z,11.98
2022-12-19T02:48:19.434Z,11.20
2022-12-19T02:50:50.145Z,10.50
2022-12-19T02:53:23.540Z,12.05
2022-12-19T02:56:12.226Z,14.13
2022-12-19T02:58:52.513Z,11.88
2022-12-19T03:01:31.834Z,10.45
2022-12-19T03:04:11.287Z,10.35
2022-12-19T03:06:49.066Z,10.70
2022-12-19T03:09:25.651Z,12.05
2022-12-19T03:12:02.554Z,11.30
2022-12-19T03:14:32.348Z,12.32
2022-12-19T03:17:05.681Z,11.65
2022-12-19T03:19:35.675Z,11.80
2022-12-19T03:22:03.201Z,10.98
2022-12-19T03:24:31.078Z,11.90
2022-12-19T03:27:06.438Z,10.70
2022-12-19T03:29:39.144Z,11.50
2022-12-19T03:32:11.446Z,12.45
2022-12-19T03:34:45.232Z,10.95
2022-12-19T03:37:16.679Z,10.82
2022-12-19T03:39:47.541Z,11.07
2022-12-19T03:42:35.377Z,11.70
2022-12-19T03:45:05.662Z,12.75
2022-12-19T03:47:38.835Z,11.48
2022-12-19T03:50:09.419Z,12.23
2022-12-19T03:52:46.120Z,11.57
2022-12-19T03:55:17.545Z,12.93
2022-12-19T03:57:51.408Z,11.30
2022-12-19T04:00:19.667Z,12.82
2022-12-19T04:02:52.265Z,12.13
2022-12-19T04:05:24.080Z,11.98
2022-12-19T04:07:55.204Z,10.85
2022-12-19T04:10:27.171Z,12.73
2022-12-19T04:13:00.053Z,12.02
2022-12-19T04:15:36.771Z,11.18
2022-12-19T04:18:07.871Z,10.40
2022-12-19T04:20:41.101Z,12.35
2022-12-19T04:23:15.912Z,12.27
2022-12-19T04:25:48.661Z,11.93
2022-12-19T04:28:21.030Z,12.27
2022-12-19T04:30:49.955Z,11.88
2022-12-19T04:33:17.607Z,11.40
2022-12-19T04:35:46.564Z,11.27
2022-12-19T04:38:14.154Z,12.98
2022-12-19T04:40:41.912Z,14.10
2022-12-19T04:43:09.896Z,13.35
2022-12-19T04:45:37.735Z,12.43
2022-12-19T04:48:05.752Z,12.85
2022-12-19T04:50:35.974Z,12.73
2022-12-19T04:53:05.068Z,11.88
2022-12-19T04:55:32.772Z,12.25
2022-12-19T04:58:06.137Z,12.15
2022-12-19T05:00:34.107Z,12.38
2022-12-19T05:03:01.931Z,11.27
2022-12-19T05:05:29.722Z,11.95
2022-12-19T05:08:00.353Z,12.77
2022-12-19T05:10:29.251Z,14.38
2022-12-19T05:12:56.734Z,13.32
2022-12-19T05:15:24.467Z,12.85
2022-12-19T05:17:52.121Z,11.85
2022-12-19T05:20:19.641Z,13.13
2022-12-19T05:22:47.210Z,11.68
2022-12-19T05:25:14.954Z,13.77
2022-12-19T05:27:43.860Z,13.00
2022-12-19T05:30:12.418Z,11.27
2022-12-19T05:32:39.960Z,14.32
2022-12-19T05:35:08.353Z,13.38
2022-12-19T05:37:35.977Z,13.00
2022-12-19T05:40:03.498Z,12.13
2022-12-19T05:42:31.000Z,11.45
2022-12-19T05:44:59.892Z,13.15
2022-12-19T05:47:27.438Z,12.30
2022-12-19T05:49:54.958Z,13.60
2022-12-19T05:52:23.011Z,11.85
2022-12-19T05:54:50.660Z,12.18
2022-12-19T05:57:18.196Z,12.10
2022-12-19T05:59:45.720Z,11.43
2022-12-19T06:02:14.658Z,12.82
2022-12-19T06:04:42.353Z,12.40
2022-12-19T06:07:10.116Z,13.48
2022-12-19T06:09:38.151Z,12.13
2022-12-19T06:12:06.133Z,12.18
2022-12-19T06:14:34.130Z,13.88
2022-12-19T06:17:01.755Z,11.18
2022-12-19T06:19:31.306Z,12.02
2022-12-19T06:21:58.889Z,13.20
2022-12-19T06:24:26.770Z,11.85
2022-12-19T06:26:54.334Z,12.77
2022-12-19T06:29:21.863Z,10.98
2022-12-19T06:31:49.864Z,13.48
2022-12-19T06:34:39.454Z,12.90
2022-12-19T06:37:08.380Z,11.98
2022-12-19T06:39:36.355Z,10.77
2022-12-19T06:42:21.820Z,11.65
2022-12-19T06:44:49.459Z,11.45
2022-12-19T06:47:17.127Z,11.93
2022-12-19T06:49:44.653Z,11.60
2022-12-19T06:52:13.512Z,11.52
2022-12-19T06:54:41.261Z,10.85
2022-12-19T06:57:08.968Z,12.52
2022-12-19T06:59:36.465Z,12.35
2022-12-19T07:02:13.239Z,11.60
2022-12-19T07:04:44.675Z,11.15
2022-12-19T07:07:13.818Z,10.98
2022-12-19T07:09:41.965Z,13.80
2022-12-19T07:12:09.541Z,12.38
2022-12-19T07:14:37.093Z,12.75
2022-12-19T07:17:06.217Z,12.07
2022-12-19T07:19:34.828Z,11.70
2022-12-19T07:22:04.802Z,11.73
2022-12-19T07:24:35.657Z,11.57
2022-12-19T07:27:03.502Z,12.57
2022-12-19T07:29:30.993Z,13.00
2022-12-19T07:31:58.934Z,16.88
2022-12-19T07:34:26.544Z,11.57
2022-12-19T07:36:54.072Z,11.55
2022-12-19T07:39:22.735Z,11.30
2022-12-19T07:41:51.578Z,11.32
2022-12-19T07:44:30.331Z,12.07
2022-12-19T07:46:58.340Z,11.97
2022-12-19T07:49:25.852Z,12.75
2022-12-19T07:51:53.391Z,14.23
2022-12-19T07:54:20.983Z,11.82
2022-12-19T07:56:48.517Z,12.73
2022-12-19T07:59:17.680Z,12.10
2022-12-19T08:01:45.315Z,11.85
2022-12-19T08:04:13.150Z,14.15
2022-12-19T08:06:41.519Z,13.32
2022-12-19T08:09:09.348Z,13.98
2022-12-19T08:11:36.863Z,14.50
2022-12-19T08:14:04.739Z,12.77
2022-12-19T08:16:49.266Z,13.75
2022-12-19T08:19:24.700Z,12.80
2022-12-19T08:21:54.917Z,14.68
2022-12-19T08:24:22.488Z,16.05
2022-12-19T08:26:50.099Z,14.30
2022-12-19T08:29:17.667Z,15.02
2022-12-19T08:31:46.685Z,14.93
2022-12-19T08:34:14.208Z,14.45
2022-12-19T08:36:41.815Z,14.13
2022-12-19T08:39:09.569Z,15.55
2022-12-19T08:41:37.249Z,15.13
2022-12-19T08:44:04.961Z,15.30
2022-12-19T08:46:32.553Z,15.43
2022-12-19T08:49:01.632Z,15.47
2022-12-19T08:51:29.204Z,15.07
2022-12-19T08:53:56.768Z,15.95
2022-12-19T08:56:24.469Z,17.30
2022-12-19T08:58:52.769Z,14.68
2022-12-19T09:01:23.809Z,15.83
2022-12-19T09:05:28.861Z,17.50
2022-12-19T09:06:40.715Z,17.33
2022-12-19T09:09:08.478Z,18.65
2022-12-19T09:11:45.357Z,23.42
2022-12-19T09:14:21.202Z,28.97
2022-12-19T09:16:49.397Z,19.77
2022-12-19T09:19:16.994Z,15.32
2022-12-19T09:21:45.934Z,15.30
2022-12-19T09:24:13.482Z,20.27
2022-12-19T09:26:42.072Z,19.97
2022-12-19T09:29:20.083Z,18.23
2022-12-19T09:31:53.836Z,16.95
2022-12-19T09:34:24.911Z,19.73
2022-12-19T09:37:06.413Z,16.40
2022-12-19T09:39:34.868Z,18.73
2022-12-19T09:42:34.203Z,15.57
2022-12-19T09:45:31.585Z,17.52
2022-12-19T09:48:01.606Z,15.40
2022-12-19T09:50:45.910Z,16.65
2022-12-19T09:53:23.687Z,16.27
2022-12-19T09:55:53.836Z,16.63
2022-12-19T09:58:32.399Z,17.02
2022-12-19T10:01:03.366Z,16.38
2022-12-19T10:03:40.346Z,20.30
2022-12-19T10:07:11.128Z,19.63
2022-12-19T10:10:01.432Z,18.50
2022-12-19T10:12:45.273Z,19.08
2022-12-19T10:15:20.564Z,22.95
2022-12-19T10:18:05.382Z,18.27
2022-12-19T10:20:36.489Z,17.60
2022-12-19T10:23:18.714Z,19.65
2022-12-19T10:26:00.181Z,19.98
2022-12-19T10:28:44.020Z,19.85
2022-12-19T10:31:21.827Z,20.35
2022-12-19T10:33:58.182Z,21.23
2022-12-19T10:36:48.767Z,18.85
2022-12-19T10:39:22.214Z,17.67
2022-12-19T10:41:55.680Z,17.85
2022-12-19T10:44:26.689Z,17.10
2022-12-19T10:46:54.251Z,17.75
2022-12-19T10:49:23.564Z,19.13
2022-12-19T10:51:58.991Z,16.30
2022-12-19T10:54:37.941Z,16.05
2022-12-19T10:57:21.164Z,16.27
2022-12-19T10:59:56.618Z,16.07
2022-12-19T11:02:35.225Z,16.58
2022-12-19T11:05:04.534Z,15.88
2022-12-19T11:07:32.418Z,18.42
2022-12-19T11:10:32.951Z,18.73
2022-12-19T11:18:05.748Z,18.17
2022-12-19T11:22:17.331Z,20.58
2022-12-19T11:29:15.411Z,17.08
2022-12-19T11:29:45.797Z,17.52
2022-12-19T11:29:47.126Z,18.27
2022-12-19T11:30:34.364Z,16.87
2022-12-19T11:33:15.591Z,18.15
2022-12-19T11:35:49.254Z,18.02
2022-12-19T11:38:22.116Z,16.80
2022-12-19T11:40:53.968Z,18.47
2022-12-19T11:43:45.299Z,20.25
2022-12-19T11:46:25.843Z,16.27
2022-12-19T11:48:56.504Z,18.40
2022-12-19T11:51:31.234Z,21.38
2022-12-19T11:54:09.206Z,21.70
2022-12-19T11:56:36.781Z,20.67
2022-12-19T11:59:16.016Z,22.60
2022-12-19T12:01:59.212Z,26.20
2022-12-19T12:04:44.443Z,27.00
2022-12-19T12:07:34.211Z,19.77
2022-12-19T12:15:24.390Z,15.75
2022-12-19T12:24:58.624Z,16.98
2022-12-19T12:28:31.106Z,19.17
2022-12-19T12:31:16.421Z,17.98
2022-12-19T12:31:20.597Z,21.23
2022-12-19T12:31:42.239Z,19.50
2022-12-19T12:32:06.513Z,17.23
2022-12-19T12:35:13.513Z,23.13
2022-12-19T12:35:30.230Z,20.23
2022-12-19T12:39:48.605Z,17.52
2022-12-19T12:42:32.843Z,20.23
2022-12-19T12:45:02.428Z,20.00
2022-12-19T12:47:30.202Z,19.15
2022-12-19T12:50:01.720Z,19.57
2022-12-19T12:52:35.864Z,20.08
2022-12-19T12:55:05.482Z,18.17
2022-12-19T12:57:38.813Z,20.60
2022-12-19T13:00:20.693Z,22.95
2022-12-19T13:02:53.250Z,24.80
2022-12-19T13:05:33.429Z,20.42
2022-12-19T13:08:02.556Z,21.15
2022-12-19T13:10:32.564Z,20.58
2022-12-19T13:13:01.433Z,20.67
2022-12-19T13:15:38.456Z,20.10
2022-12-19T13:18:34.038Z,19.50
2022-12-19T13:21:04.365Z,19.77
2022-12-19T13:23:47.018Z,19.83
2022-12-19T13:26:36.821Z,19.13
2022-12-19T13:29:26.929Z,27.03
2022-12-19T13:32:09.056Z,21.58
2022-12-19T13:34:37.629Z,21.27
2022-12-19T13:39:49.333Z,19.80
2022-12-19T13:40:33.211Z,20.50
2022-12-19T13:43:27.475Z,21.73
2022-12-19T13:45:58.009Z,20.35
2022-12-19T13:48:31.322Z,19.92
2022-12-19T13:51:01.746Z,17.90
2022-12-19T13:53:30.481Z,20.63
2022-12-19T13:56:03.244Z,20.20
2022-12-19T13:58:33.069Z,21.38
2022-12-19T14:01:04.413Z,20.98
2022-12-19T14:03:37.547Z,21.20
2022-12-19T14:06:17.658Z,34.42
2022-12-19T14:09:41.548Z,20.00
2022-12-19T14:12:22.736Z,21.00
2022-12-19T14:14:48.675Z,22.15
2022-12-19T14:17:30.394Z,19.85
2022-12-19T14:20:15.489Z,20.90
2022-12-19T14:22:45.602Z,21.40
2022-12-19T14:27:51.729Z,22.35
2022-12-19T14:28:24.405Z,21.83
2022-12-19T14:30:58.968Z,22.25
2022-12-19T14:33:43.684Z,21.55
2022-12-19T14:36:26.207Z,20.97
2022-12-19T14:39:23.899Z,20.58
2022-12-19T14:42:04.101Z,21.67
2022-12-19T14:52:11.609Z,23.02
2022-12-19T14:52:34.686Z,23.10
2022-12-19T14:54:10.264Z,22.53
2022-12-19T14:54:50.653Z,21.92
2022-12-19T14:58:58.609Z,22.25
2022-12-19T15:01:29.575Z,22.88
2022-12-19T15:04:48.887Z,21.83
2022-12-19T15:07:09.248Z,21.98
2022-12-19T15:11:05.452Z,22.42
2022-12-19T15:14:04.045Z,23.13
2022-12-19T15:15:46.095Z,21.98
2022-12-19T15:18:22.023Z,23.20
2022-12-19T15:20:49.996Z,21.77
2022-12-19T15:23:22.061Z,22.17
2022-12-19T15:26:07.697Z,23.20
2022-12-19T15:28:39.425Z,22.20
2022-12-19T15:31:18.117Z,23.40
2022-12-19T15:34:32.176Z,21.65
2022-12-19T15:36:34.644Z,21.35
2022-12-19T15:39:03.559Z,22.33
2022-12-19T15:41:31.481Z,24.40
2022-12-19T15:44:04.223Z,23.80
2022-12-19T15:46:33.309Z,22.63
2022-12-19T15:49:02.419Z,21.50
2022-12-19T15:51:30.125Z,23.10
2022-12-19T15:54:22.188Z,25.65
2022-12-19T15:56:47.853Z,24.17
2022-12-19T15:59:24.383Z,24.77
2022-12-19T16:01:52.894Z,25.75
2022-12-19T16:04:23.153Z,24.25
2022-12-19T16:06:50.811Z,24.60
2022-12-19T16:09:21.048Z,22.97
2022-12-19T16:11:48.843Z,25.52
2022-12-19T16:14:17.078Z,25.98
2022-12-19T16:16:50.077Z,25.20
2022-12-19T16:19:26.518Z,24.35
2022-12-19T16:21:54.878Z,25.27
2022-12-19T16:24:23.060Z,22.35
2022-12-19T16:26:54.321Z,21.63
2022-12-19T16:29:24.972Z,24.00
2022-12-19T16:31:52.583Z,22.58
2022-12-19T16:34:22.508Z,22.83
2022-12-19T16:36:52.007Z,24.33
2022-12-19T16:39:19.597Z,22.73
2022-12-19T16:41:47.809Z,23.80
2022-12-19T16:44:20.213Z,24.95
2022-12-19T16:46:51.057Z,24.87
2022-12-19T16:49:22.708Z,26.60
2022-12-19T16:51:52.327Z,24.40
2022-12-19T16:54:21.639Z,22.40
2022-12-19T16:56:50.735Z,23.27
2022-12-19T16:59:21.367Z,25.30
2022-12-19T17:01:50.894Z,23.73
2022-12-19T17:04:21.447Z,23.63
2022-12-19T17:06:51.725Z,22.75
2022-12-19T17:09:23.125Z,23.80
2022-12-19T17:11:53.939Z,21.03
2022-12-19T17:14:23.538Z,19.98
2022-12-19T17:16:54.999Z,20.85
2022-12-19T17:19:24.663Z,20.15
2022-12-19T17:21:53.791Z,20.92
2022-12-19T17:24:21.359Z,18.43
2022-12-19T17:26:48.897Z,20.30
2022-12-19T17:29:16.508Z,17.88
2022-12-19T17:31:44.273Z,18.02
2022-12-19T17:34:18.731Z,17.38
2022-12-19T17:36:46.499Z,18.50
2022-12-19T17:39:23.879Z,18.45
2022-12-19T17:41:52.078Z,17.50
2022-12-19T17:44:19.944Z,15.55
2022-12-19T17:46:48.490Z,16.25
2022-12-19T17:49:18.218Z,16.57
2022-12-19T17:51:52.183Z,14.85
2022-12-19T17:54:19.982Z,15.70
2022-12-19T17:56:48.971Z,14.95
2022-12-19T17:59:16.504Z,17.25
2022-12-19T18:01:46.854Z,16.33
2022-12-19T18:04:17.399Z,15.15
2022-12-19T18:06:45.519Z,14.73
2022-12-19T18:09:19.662Z,15.23
2022-12-19T18:11:49.374Z,14.02
2022-12-19T18:14:17.328Z,14.27
2022-12-19T18:16:45.867Z,14.73
2022-12-19T18:19:18.155Z,15.20
2022-12-19T18:21:46.000Z,13.88
2022-12-19T18:24:14.689Z,13.95
2022-12-19T18:26:42.227Z,14.83
2022-12-19T18:29:11.466Z,14.20
2022-12-19T18:31:43.468Z,15.57
2022-12-19T18:34:20.008Z,14.13
2022-12-19T18:36:47.589Z,16.15
2022-12-19T18:39:21.475Z,14.83
2022-12-19T18:41:49.955Z,14.43
2022-12-19T18:44:19.150Z,14.82
2022-12-19T18:46:49.576Z,14.20
2022-12-19T18:49:18.217Z,13.82
2022-12-19T18:51:46.182Z,12.93
2022-12-19T18:54:14.782Z,15.73
2022-12-19T18:56:42.412Z,14.05
2022-12-19T18:59:10.919Z,13.40
2022-12-19T19:01:42.863Z,13.98
2022-12-19T19:04:12.988Z,13.77
2022-12-19T19:06:46.742Z,14.73
2022-12-19T19:09:19.233Z,13.20
2022-12-19T19:11:49.477Z,13.52
2022-12-19T19:14:17.039Z,13.10
2022-12-19T19:16:46.065Z,13.33
2022-12-19T19:19:17.413Z,13.10
2022-12-19T19:21:45.232Z,13.00
2022-12-19T19:24:15.742Z,13.10
2022-12-19T19:26:43.396Z,12.77
2022-12-19T19:29:10.945Z,15.10
2022-12-19T19:31:44.487Z,13.52
2022-12-19T19:34:16.298Z,13.80
2022-12-19T19:36:49.311Z,13.43
2022-12-19T19:39:19.709Z,12.95
2022-12-19T19:41:47.235Z,13.47
2022-12-19T19:44:14.790Z,13.70
2022-12-19T19:46:42.604Z,13.13
2022-12-19T19:49:10.388Z,14.32
2022-12-19T19:51:39.458Z,15.20
2022-12-19T19:54:07.097Z,14.27
2022-12-19T19:56:34.931Z,13.35
2022-12-19T19:59:02.583Z,13.85
2022-12-19T20:01:30.174Z,14.82
2022-12-19T20:03:57.954Z,13.63
2022-12-19T20:06:25.949Z,12.70
2022-12-19T20:08:54.886Z,12.45
2022-12-19T20:11:22.475Z,12.35
2022-12-19T20:13:50.037Z,13.40
2022-12-19T20:16:19.607Z,12.63
2022-12-19T20:18:49.814Z,12.50
2022-12-19T20:21:19.650Z,11.90
2022-12-19T20:23:47.167Z,12.13
2022-12-19T20:26:17.558Z,12.68
2022-12-19T20:28:48.921Z,11.05
2022-12-19T20:31:18.226Z,11.90
2022-12-19T20:33:46.180Z,11.32
2022-12-19T20:36:14.164Z,11.20
2022-12-19T20:38:42.085Z,11.63
2022-12-19T20:41:09.688Z,11.05
2022-12-19T20:43:38.997Z,11.47
2022-12-19T20:46:08.002Z,11.23
2022-12-19T20:48:35.946Z,11.45
2022-12-19T20:51:05.117Z,11.48
2022-12-19T20:53:33.586Z,11.15
2022-12-19T20:56:02.454Z,10.83
2022-12-19T20:58:32.691Z,11.18
2022-12-19T21:01:07.182Z,10.27
2022-12-19T21:03:35.257Z,10.88
2022-12-19T21:06:03.372Z,10.32
2022-12-19T21:08:31.131Z,10.50
2022-12-19T21:11:00.333Z,10.13
2022-12-19T21:13:28.005Z,10.07
2022-12-19T21:15:56.923Z,10.27
2022-12-19T21:18:26.514Z,9.82
2022-12-19T21:20:54.231Z,9.40
2022-12-19T21:23:22.471Z,11.50
2022-12-19T21:25:50.244Z,10.30
2022-12-19T21:28:18.149Z,8.98
2022-12-19T21:30:45.839Z,9.23
2022-12-19T21:33:13.406Z,9.97
2022-12-19T21:35:42.307Z,9.48
2022-12-19T21:38:09.807Z,10.35
2022-12-19T21:40:37.352Z,10.15
2022-12-19T21:43:11.424Z,9.10
2022-12-19T21:45:39.979Z,9.57
2022-12-19T21:48:07.627Z,9.73
2022-12-19T21:50:35.310Z,10.25
2022-12-19T21:53:04.249Z,9.77
2022-12-19T21:55:31.768Z,9.93
2022-12-19T21:58:00.555Z,9.40
2022-12-19T22:00:28.213Z,9.65
2022-12-19T22:03:13.282Z,9.02
2022-12-19T22:05:42.268Z,9.13
2022-12-19T22:08:11.923Z,9.52
2022-12-19T22:10:39.887Z,9.63
2022-12-19T22:13:07.436Z,9.52
2022-12-19T22:15:36.653Z,8.98
2022-12-19T22:18:04.532Z,8.93
2022-12-19T22:20:32.037Z,9.70
2022-12-19T22:22:59.591Z,9.00
2022-12-19T22:25:28.433Z,9.18
2022-12-19T22:27:56.317Z,9.60
2022-12-19T22:30:23.831Z,9.40
2022-12-19T22:32:51.386Z,9.48
2022-12-19T22:35:19.610Z,9.33
2022-12-19T22:37:47.207Z,9.48
2022-12-19T22:40:14.956Z,9.75
2022-12-19T22:42:43.819Z,9.10
2022-12-19T22:45:12.005Z,8.75
2022-12-19T22:47:42.127Z,8.73
2022-12-19T22:50:11.262Z,9.15
2022-12-19T22:52:39.130Z,9.00
2022-12-19T22:55:07.674Z,9.73
2022-12-19T22:57:35.294Z,9.00
2022-12-19T23:00:05.621Z,9.20
2022-12-19T23:02:33.379Z,9.35
2022-12-19T23:05:00.983Z,9.50
2022-12-19T23:07:28.521Z,9.15
2022-12-19T23:09:56.024Z,8.95
2022-12-19T23:12:23.552Z,9.10
2022-12-19T23:14:51.108Z,9.75
2022-12-19T23:17:20.059Z,8.45
2022-12-19T23:19:47.563Z,8.73
2022-12-19T23:22:15.263Z,9.30
2022-12-19T23:24:44.601Z,8.90
2022-12-19T23:27:12.127Z,9.50
2022-12-19T23:29:39.627Z,8.15
2022-12-19T23:32:07.503Z,8.88
2022-12-19T23:34:37.098Z,9.43
2022-12-19T23:37:12.693Z,8.73
2022-12-19T23:39:40.526Z,8.68
2022-12-19T23:42:08.092Z,8.68
2022-12-19T23:44:35.786Z,8.18
2022-12-19T23:47:04.147Z,9.05
2022-12-19T23:49:32.520Z,8.97
2022-12-19T23:52:01.875Z,8.60
2022-12-19T23:54:29.467Z,8.50
2022-12-19T23:56:57.062Z,8.07
2022-12-19T23:59:24.594Z,8.63
